createdAt,value
2022-09-28T00:01:16.473Z,99.90
2022-09-28T00:03:44.152Z,99.90
2022-09-28T00:06:13.542Z,99.90
2022-09-28T00:08:40.828Z,99.90
2022-09-28T00:11:12.334Z,99.90
2022-09-28T00:13:40.331Z,99.90
2022-09-28T00:16:19.681Z,99.90
2022-09-28T00:18:47.073Z,99.90
2022-09-28T00:21:16.836Z,99.90
2022-09-28T00:24:02.706Z,99.90
2022-09-28T00:26:31.877Z,99.90
2022-09-28T00:29:01.170Z,99.90
2022-09-28T00:31:32.628Z,99.90
2022-09-28T00:34:01.504Z,99.90
2022-09-28T00:36:30.827Z,99.90
2022-09-28T00:38:59.253Z,99.90
2022-09-28T00:41:27.838Z,99.90
2022-09-28T00:44:26.795Z,99.90
2022-09-28T00:46:58.194Z,99.90
2022-09-28T00:49:41.240Z,99.90
2022-09-28T00:52:12.542Z,99.90
2022-09-28T00:54:41.078Z,99.90
2022-09-28T00:57:09.224Z,99.90
2022-09-28T00:59:36.700Z,99.90
2022-09-28T01:02:04.007Z,99.90
2022-09-28T01:04:31.464Z,99.90
2022-09-28T01:07:00.176Z,99.90
2022-09-28T01:09:28.935Z,99.90
2022-09-28T01:11:56.067Z,99.90
2022-09-28T01:14:25.735Z,99.90
2022-09-28T01:17:07.585Z,99.90
2022-09-28T01:20:14.712Z,99.90
2022-09-28T01:22:45.645Z,99.90
2022-09-28T01:25:37.617Z,99.90
2022-09-28T01:28:09.222Z,99.90
2022-09-28T01:30:58.552Z,99.90
2022-09-28T01:33:32.473Z,99.90
2022-09-28T01:36:04.782Z,99.90
2022-09-28T01:38:46.544Z,99.90
2022-09-28T01:41:17.777Z,99.90
2022-09-28T01:43:54.588Z,99.90
2022-09-28T01:46:33.824Z,99.90
2022-09-28T01:49:08.861Z,99.90
2022-09-28T01:52:07.138Z,99.90
2022-09-28T01:54:44.951Z,99.90
2022-09-28T01:57:22.699Z,99.90
2022-09-28T02:00:00.572Z,99.90
2022-09-28T02:02:34.003Z,99.90
2022-09-28T02:05:13.640Z,99.90
2022-09-28T02:07:51.781Z,99.90
2022-09-28T02:10:24.686Z,99.90
2022-09-28T02:13:10.547Z,99.90
2022-09-28T02:16:10.145Z,99.90
2022-09-28T02:18:37.387Z,99.90
2022-09-28T02:21:20.584Z,99.90
2022-09-28T02:24:02.493Z,99.90
2022-09-28T02:26:35.928Z,99.90
2022-09-28T02:29:03.331Z,99.90
2022-09-28T02:31:31.607Z,99.90
2022-09-28T02:33:59.336Z,99.90
2022-09-28T02:36:28.184Z,99.90
2022-09-28T02:38:57.717Z,99.90
2022-09-28T02:41:37.482Z,99.90
2022-09-28T02:44:15.851Z,99.90
2022-09-28T02:47:04.220Z,99.90
2022-09-28T02:49:45.679Z,99.90
2022-09-28T02:52:22.141Z,99.90
2022-09-28T02:55:20.428Z,99.90
2022-09-28T02:58:13.324Z,99.90
2022-09-28T03:01:12.376Z,99.90
2022-09-28T03:03:55.973Z,99.90
2022-09-28T03:06:38.289Z,99.90
2022-09-28T03:09:10.976Z,99.90
2022-09-28T03:11:47.914Z,99.90
2022-09-28T03:14:15.823Z,99.90
2022-09-28T03:16:49.865Z,99.90
2022-09-28T03:19:21.357Z,99.90
2022-09-28T03:21:48.945Z,99.90
2022-09-28T03:24:15.955Z,99.90
2022-09-28T03:26:43.001Z,99.90
2022-09-28T03:29:11.332Z,99.90
2022-09-28T03:31:39.426Z,99.90
2022-09-28T03:34:06.670Z,99.90
2022-09-28T03:36:33.669Z,99.90
2022-09-28T03:39:00.736Z,99.90
2022-09-28T03:41:27.983Z,99.90
2022-09-28T03:43:55.085Z,99.90
2022-09-28T03:46:24.564Z,99.90
2022-09-28T03:48:58.230Z,99.90
2022-09-28T03:51:26.197Z,99.90
2022-09-28T03:53:54.105Z,99.90
2022-09-28T03:56:21.391Z,99.90
2022-09-28T03:58:48.551Z,99.90
2022-09-28T04:01:17.651Z,99.90
2022-09-28T04:03:47.567Z,99.90
2022-09-28T04:06:15.202Z,99.90
2022-09-28T04:08:43.488Z,99.90
2022-09-28T04:11:11.450Z,99.90
2022-09-28T04:13:38.497Z,99.90
2022-09-28T04:16:10.726Z,99.90
2022-09-28T04:18:39.987Z,99.90
2022-09-28T04:21:39.976Z,99.90
2022-09-28T04:24:11.318Z,99.90
2022-09-28T04:26:38.394Z,99.90
2022-09-28T04:29:18.151Z,99.90
2022-09-28T04:31:53.750Z,99.90
2022-09-28T04:34:24.995Z,99.90
2022-09-28T04:36:51.960Z,99.90
2022-09-28T04:39:19.883Z,99.90
2022-09-28T04:41:50.491Z,99.90
2022-09-28T04:44:17.652Z,99.90
2022-09-28T04:46:46.568Z,99.90
2022-09-28T04:49:28.881Z,99.90
2022-09-28T04:52:05.776Z,99.90
2022-09-28T04:54:34.522Z,99.90
2022-09-28T04:57:03.336Z,99.90
2022-09-28T04:59:30.312Z,99.90
2022-09-28T05:01:57.602Z,99.90
2022-09-28T05:04:36.311Z,99.90
2022-09-28T05:07:09.732Z,99.90
2022-09-28T05:09:38.699Z,99.90
2022-09-28T05:12:06.080Z,99.90
2022-09-28T05:14:33.122Z,99.90
2022-09-28T05:17:00.200Z,99.90
2022-09-28T05:19:27.519Z,99.90
2022-09-28T05:22:05.976Z,99.90
2022-09-28T05:24:38.398Z,99.90
2022-09-28T05:27:05.583Z,99.90
2022-09-28T05:29:32.909Z,99.90
2022-09-28T05:32:41.948Z,99.90
2022-09-28T05:35:19.686Z,99.90
2022-09-28T05:37:48.179Z,99.90
2022-09-28T05:40:16.086Z,99.90
2022-09-28T05:42:43.259Z,99.90
2022-09-28T05:45:10.630Z,99.90
2022-09-28T05:47:42.769Z,99.90
2022-09-28T05:50:11.983Z,99.90
2022-09-28T05:52:39.801Z,99.90
2022-09-28T05:55:08.949Z,99.90
2022-09-28T05:57:36.269Z,99.90
2022-09-28T06:00:09.058Z,99.90
2022-09-28T06:02:56.112Z,99.90
2022-09-28T06:05:24.079Z,99.90
2022-09-28T06:07:51.159Z,99.90
2022-09-28T06:10:18.239Z,99.90
2022-09-28T06:12:47.805Z,99.90
2022-09-28T06:15:17.377Z,99.90
2022-09-28T06:17:45.946Z,99.90
2022-09-28T06:20:34.969Z,99.90
2022-09-28T06:23:12.844Z,99.90
2022-09-28T06:25:40.642Z,99.90
2022-09-28T06:28:11.471Z,99.90
2022-09-28T06:30:40.405Z,99.90
2022-09-28T06:33:13.232Z,99.90
2022-09-28T06:35:42.235Z,99.90
2022-09-28T06:38:09.794Z,99.90
2022-09-28T06:40:38.262Z,99.90
2022-09-28T06:43:15.798Z,99.90
2022-09-28T06:46:01.885Z,99.90
2022-09-28T06:48:38.074Z,99.90
2022-09-28T06:51:07.091Z,99.90
2022-09-28T06:53:41.921Z,99.90
2022-09-28T06:56:22.116Z,99.90
2022-09-28T06:58:49.639Z,99.90
2022-09-28T07:01:17.540Z,99.90
2022-09-28T07:04:16.996Z,99.90
2022-09-28T07:07:10.944Z,99.90
2022-09-28T07:09:58.176Z,99.90
2022-09-28T07:12:44.179Z,99.90
2022-09-28T07:15:28.279Z,99.90
2022-09-28T07:18:02.748Z,99.90
2022-09-28T07:20:36.952Z,99.90
2022-09-28T07:23:18.234Z,99.90
2022-09-28T07:26:08.483Z,99.90
2022-09-28T07:29:13.140Z,99.90
2022-09-28T07:31:59.064Z,99.90
2022-09-28T07:34:44.604Z,99.90
2022-09-28T07:37:35.989Z,99.90
2022-09-28T07:40:24.272Z,99.90
2022-09-28T07:42:51.584Z,99.90
2022-09-28T07:45:20.720Z,99.90
2022-09-28T07:47:48.973Z,99.90
2022-09-28T07:50:25.275Z,99.90
2022-09-28T07:52:58.110Z,99.90
2022-09-28T07:55:29.835Z,99.90
2022-09-28T07:58:13.787Z,99.90
2022-09-28T08:01:02.764Z,99.90
2022-09-28T08:03:30.044Z,99.90
2022-09-28T08:06:01.998Z,99.90
2022-09-28T08:08:29.922Z,99.90
2022-09-28T08:10:58.005Z,99.90
2022-09-28T08:13:47.370Z,99.90
2022-09-28T08:16:22.553Z,99.90
2022-09-28T08:19:00.304Z,99.90
2022-09-28T08:21:45.407Z,99.90
2022-09-28T08:24:15.467Z,99.90
2022-09-28T08:26:43.224Z,99.90
2022-09-28T08:29:11.963Z,99.90
2022-09-28T08:32:01.518Z,99.90
2022-09-28T08:34:39.313Z,99.90
2022-09-28T08:37:38.660Z,99.90
2022-09-28T08:40:49.220Z,99.90
2022-09-28T08:43:37.785Z,99.90
2022-09-28T08:46:31.690Z,99.90
2022-09-28T08:49:29.723Z,99.90
2022-09-28T08:52:18.796Z,99.90
2022-09-28T08:55:18.270Z,99.90
2022-09-28T08:57:52.618Z,99.90
2022-09-28T09:00:29.580Z,99.90
2022-09-28T09:02:56.788Z,99.90
2022-09-28T09:05:55.955Z,99.90
2022-09-28T09:08:52.401Z,99.90
2022-09-28T09:11:54.905Z,99.90
2022-09-28T09:14:35.422Z,99.90
2022-09-28T09:17:20.408Z,99.90
2022-09-28T09:20:51.798Z,99.90
2022-09-28T09:24:03.880Z,99.90
2022-09-28T09:26:41.393Z,99.90
2022-09-28T09:29:36.395Z,99.90
2022-09-28T09:32:31.256Z,99.90
2022-09-28T09:35:01.355Z,99.90
2022-09-28T09:38:19.234Z,99.90
2022-09-28T09:41:20.173Z,99.90
2022-09-28T09:44:52.789Z,99.90
2022-09-28T09:47:43.416Z,99.90
2022-09-28T09:50:36.158Z,99.90
2022-09-28T09:53:29.759Z,99.90
2022-09-28T09:56:06.422Z,99.90
2022-09-28T09:58:47.806Z,99.90
2022-09-28T10:01:39.166Z,99.90
2022-09-28T10:04:39.546Z,99.90
2022-09-28T10:07:43.311Z,99.90
2022-09-28T10:10:30.676Z,99.90
2022-09-28T10:13:08.876Z,99.90
2022-09-28T10:15:37.105Z,99.90
2022-09-28T10:18:21.152Z,99.90
2022-09-28T10:21:07.182Z,99.90
2022-09-28T10:23:43.348Z,99.90
2022-09-28T10:26:15.950Z,99.90
2022-09-28T10:28:52.039Z,99.90
2022-09-28T10:31:41.020Z,99.90
2022-09-28T10:34:15.333Z,99.90
2022-09-28T10:36:55.930Z,99.90
2022-09-28T10:39:40.926Z,99.90
2022-09-28T10:42:11.265Z,99.90
2022-09-28T10:44:53.262Z,99.90
2022-09-28T10:47:46.704Z,99.90
2022-09-28T10:50:25.401Z,99.90
2022-09-28T10:53:22.286Z,99.90
2022-09-28T10:56:28.540Z,99.90
2022-09-28T10:59:28.496Z,99.90
2022-09-28T11:02:24.849Z,99.90
2022-09-28T11:04:58.878Z,99.90
2022-09-28T11:07:31.904Z,99.90
2022-09-28T11:10:00.828Z,99.90
2022-09-28T11:12:43.197Z,99.90
2022-09-28T11:15:18.796Z,99.90
2022-09-28T11:17:46.251Z,99.90
2022-09-28T11:20:27.848Z,99.90
2022-09-28T11:23:14.524Z,99.90
2022-09-28T11:25:42.371Z,99.90
2022-09-28T11:28:22.296Z,99.90
2022-09-28T11:30:52.924Z,99.90
2022-09-28T11:33:46.767Z,99.90
2022-09-28T11:37:02.329Z,99.90
2022-09-28T11:39:56.358Z,99.90
2022-09-28T11:42:39.844Z,99.90
2022-09-28T11:45:40.091Z,99.70
2022-09-28T11:48:25.540Z,99.90
2022-09-28T11:50:58.481Z,98.30
2022-09-28T11:53:29.329Z,98.10
2022-09-28T11:55:59.652Z,95.20
2022-09-28T11:58:42.216Z,93.30
2022-09-28T12:01:27.318Z,81.10
2022-09-28T12:04:46.321Z,74.70
2022-09-28T12:07:24.687Z,88.80
2022-09-28T12:10:00.342Z,91.10
2022-09-28T12:13:01.177Z,89.60
2022-09-28T12:16:12.927Z,83.30
2022-09-28T12:18:47.331Z,86.60
2022-09-28T12:21:38.631Z,77.40
2022-09-28T12:24:14.959Z,68.30
2022-09-28T12:26:52.079Z,75.40
2022-09-28T12:29:26.433Z,74.60
2022-09-28T12:32:12.028Z,75.80
2022-09-28T12:34:42.425Z,74.10
2022-09-28T12:37:41.935Z,72.20
2022-09-28T12:40:58.255Z,66.60
2022-09-28T12:43:33.415Z,67.10
2022-09-28T12:46:37.676Z,70.80
2022-09-28T12:52:01.449Z,69.40
2022-09-28T12:55:21.968Z,68.90
2022-09-28T12:58:25.013Z,62.10
2022-09-28T13:00:55.025Z,64.30
2022-09-28T13:03:22.024Z,62.40
2022-09-28T13:06:14.104Z,68.20
2022-09-28T13:09:05.154Z,66.80
2022-09-28T13:11:33.158Z,64.30
2022-09-28T13:14:22.173Z,63.30
2022-09-28T13:17:00.543Z,60.90
2022-09-28T13:19:47.976Z,58.80
2022-09-28T13:22:37.510Z,57.60
2022-09-28T13:25:14.677Z,58.90
2022-09-28T13:27:50.536Z,59.40
2022-09-28T13:30:19.496Z,56.60
2022-09-28T13:32:48.180Z,56.80
2022-09-28T13:35:19.446Z,56.60
2022-09-28T13:37:47.550Z,55.20
2022-09-28T13:40:15.902Z,56.60
2022-09-28T13:43:03.229Z,55.80
2022-09-28T13:45:52.796Z,53.30
2022-09-28T13:48:24.519Z,52.10
2022-09-28T13:51:18.825Z,52.30
2022-09-28T13:53:54.709Z,54.20
2022-09-28T13:56:33.597Z,53.10
2022-09-28T13:59:22.608Z,50.30
2022-09-28T14:02:12.076Z,52.80
2022-09-28T14:04:56.520Z,49.50
2022-09-28T14:07:35.772Z,51.70
2022-09-28T14:10:35.033Z,51.10
2022-09-28T14:13:04.211Z,51.80
2022-09-28T14:15:36.822Z,50.90
2022-09-28T14:18:25.605Z,50.50
2022-09-28T14:21:30.140Z,46.80
2022-09-28T14:24:16.404Z,50.00
2022-09-28T14:27:08.474Z,50.60
2022-09-28T14:29:38.198Z,50.00
2022-09-28T14:32:20.637Z,49.90
2022-09-28T14:34:55.934Z,49.00
2022-09-28T14:37:49.121Z,50.40
2022-09-28T14:41:11.464Z,50.00
2022-09-28T14:43:44.566Z,52.50
2022-09-28T14:46:11.716Z,52.20
2022-09-28T14:49:10.915Z,52.20
2022-09-28T14:51:40.900Z,51.70
2022-09-28T14:54:07.859Z,52.10
2022-09-28T14:56:53.261Z,52.50
2022-09-28T14:59:24.836Z,51.20
2022-09-28T15:02:01.310Z,51.40
2022-09-28T15:04:30.282Z,51.10
2022-09-28T15:06:58.102Z,51.60
2022-09-28T15:09:35.179Z,52.10
2022-09-28T15:12:15.747Z,51.60
2022-09-28T15:14:57.993Z,52.20
2022-09-28T15:17:41.660Z,52.80
2022-09-28T15:20:30.379Z,54.00
2022-09-28T15:23:00.641Z,55.70
2022-09-28T15:25:30.304Z,57.10
2022-09-28T15:28:13.090Z,59.20
2022-09-28T15:30:40.382Z,62.20
2022-09-28T15:33:43.177Z,66.00
2022-09-28T15:36:25.430Z,65.40
2022-09-28T15:39:05.908Z,65.40
2022-09-28T15:41:34.237Z,66.90
2022-09-28T15:44:29.356Z,69.50
2022-09-28T15:47:09.005Z,70.30
2022-09-28T15:49:43.650Z,71.70
2022-09-28T15:52:36.681Z,73.20
2022-09-28T15:55:06.309Z,77.80
2022-09-28T15:57:37.399Z,77.80
2022-09-28T16:00:26.860Z,78.80
2022-09-28T16:03:03.198Z,83.20
2022-09-28T16:05:59.201Z,84.00
2022-09-28T16:08:48.461Z,84.00
2022-09-28T16:11:30.131Z,87.90
2022-09-28T16:14:07.111Z,90.80
2022-09-28T16:16:46.624Z,90.60
2022-09-28T16:19:28.330Z,90.80
2022-09-28T16:21:57.711Z,90.40
2022-09-28T16:24:31.910Z,88.30
2022-09-28T16:27:03.644Z,89.40
2022-09-28T16:29:42.857Z,90.10
2022-09-28T16:32:25.162Z,90.80
2022-09-28T16:35:26.224Z,91.40
2022-09-28T16:38:09.133Z,91.30
2022-09-28T16:40:39.711Z,93.90
2022-09-28T16:43:08.811Z,95.50
2022-09-28T16:45:37.665Z,96.10
2022-09-28T16:48:05.308Z,97.10
2022-09-28T16:50:32.355Z,98.30
2022-09-28T16:53:31.059Z,99.30
2022-09-28T16:55:58.778Z,99.90
2022-09-28T16:58:26.163Z,99.90
2022-09-28T17:00:54.668Z,99.90
2022-09-28T17:03:23.393Z,99.90
2022-09-28T17:05:51.923Z,99.90
2022-09-28T17:08:22.217Z,99.90
2022-09-28T17:11:13.938Z,99.90
2022-09-28T17:13:41.221Z,99.90
2022-09-28T17:16:15.681Z,99.90
2022-09-28T17:18:42.825Z,99.90
2022-09-28T17:21:13.322Z,99.90
2022-09-28T17:23:40.345Z,99.90
2022-09-28T17:26:08.043Z,99.90
2022-09-28T17:28:36.843Z,99.90
2022-09-28T17:31:06.750Z,99.90
2022-09-28T17:33:33.760Z,99.90
2022-09-28T17:36:02.932Z,99.90
2022-09-28T17:38:30.186Z,99.90
2022-09-28T17:40:57.266Z,99.90
2022-09-28T17:43:24.339Z,99.90
2022-09-28T17:45:51.503Z,99.90
2022-09-28T17:48:24.339Z,99.90
2022-09-28T17:50:51.291Z,99.90
2022-09-28T17:53:18.302Z,99.90
2022-09-28T17:55:45.323Z,99.90
2022-09-28T17:58:22.944Z,99.90
2022-09-28T18:00:51.551Z,99.90
2022-09-28T18:03:23.785Z,99.90
2022-09-28T18:05:59.473Z,99.90
2022-09-28T18:08:26.540Z,99.90
2022-09-28T18:10:54.633Z,99.90
2022-09-28T18:13:21.655Z,99.90
2022-09-28T18:15:54.276Z,99.90
2022-09-28T18:18:22.985Z,99.90
2022-09-28T18:20:50.204Z,99.90
2022-09-28T18:23:17.713Z,99.90
2022-09-28T18:25:46.369Z,99.90
2022-09-28T18:28:13.891Z,99.90
2022-09-28T18:30:45.500Z,99.90
2022-09-28T18:33:14.400Z,99.90
2022-09-28T18:35:49.801Z,99.90
2022-09-28T18:38:16.924Z,99.90
2022-09-28T18:40:44.063Z,99.90
2022-09-28T18:43:11.124Z,99.90
2022-09-28T18:45:38.225Z,99.90
2022-09-28T18:48:05.231Z,99.90
2022-09-28T18:50:32.385Z,99.90
2022-09-28T18:53:11.428Z,99.90
2022-09-28T18:55:42.684Z,99.90
2022-09-28T18:58:11.485Z,99.90
2022-09-28T19:00:40.474Z,99.90
2022-09-28T19:03:08.341Z,99.90
2022-09-28T19:05:35.415Z,99.90
2022-09-28T19:08:02.643Z,99.90
2022-09-28T19:10:29.679Z,99.90
2022-09-28T19:12:56.737Z,99.90
2022-09-28T19:15:25.446Z,99.90
2022-09-28T19:17:52.476Z,99.90
2022-09-28T19:20:19.842Z,99.90
2022-09-28T19:22:50.538Z,99.90
2022-09-28T19:25:18.085Z,99.90
2022-09-28T19:27:45.123Z,99.90
2022-09-28T19:30:12.742Z,99.90
2022-09-28T19:32:39.751Z,99.90
2022-09-28T19:35:07.843Z,99.90
2022-09-28T19:37:36.635Z,99.90
2022-09-28T19:40:05.853Z,99.90
2022-09-28T19:42:35.633Z,99.90
2022-09-28T19:45:02.899Z,99.90
2022-09-28T19:47:29.999Z,99.90
2022-09-28T19:49:57.157Z,99.90
2022-09-28T19:52:24.243Z,99.90
2022-09-28T19:54:58.228Z,99.90
2022-09-28T19:57:30.647Z,99.90
2022-09-28T20:00:02.504Z,99.90
2022-09-28T20:02:34.767Z,99.90
2022-09-28T20:05:02.223Z,99.90
2022-09-28T20:07:32.845Z,99.90
2022-09-28T20:09:59.979Z,99.90
2022-09-28T20:12:27.008Z,99.90
2022-09-28T20:14:54.262Z,99.90
2022-09-28T20:17:21.770Z,99.90
2022-09-28T20:19:51.658Z,99.90
2022-09-28T20:22:19.333Z,99.90
2022-09-28T20:24:46.579Z,99.90
2022-09-28T20:27:13.620Z,99.90
2022-09-28T20:29:42.927Z,99.90
2022-09-28T20:32:11.128Z,99.90
2022-09-28T20:34:38.115Z,99.90
2022-09-28T20:37:05.085Z,99.90
2022-09-28T20:39:32.139Z,99.90
2022-09-28T20:41:59.144Z,99.90
2022-09-28T20:44:26.242Z,99.90
2022-09-28T20:46:53.233Z,99.90
2022-09-28T20:49:20.406Z,99.90
2022-09-28T20:51:47.524Z,99.90
2022-09-28T20:54:14.623Z,99.90
2022-09-28T20:56:41.636Z,99.90
2022-09-28T20:59:11.239Z,99.90
2022-09-28T21:01:38.790Z,99.90
2022-09-28T21:04:07.708Z,99.90
2022-09-28T21:06:36.990Z,99.90
2022-09-28T21:09:05.833Z,99.90
2022-09-28T21:11:35.377Z,99.90
2022-09-28T21:14:06.294Z,99.90
2022-09-28T21:16:34.532Z,99.90
2022-09-28T21:19:01.756Z,99.90
2022-09-28T21:21:28.865Z,99.90
2022-09-28T21:23:57.427Z,99.90
2022-09-28T21:26:27.009Z,99.90
2022-09-28T21:29:05.364Z,99.90
2022-09-28T21:31:45.723Z,99.90
2022-09-28T21:34:20.351Z,99.90
2022-09-28T21:36:51.020Z,99.90
2022-09-28T21:39:18.808Z,99.90
2022-09-28T21:41:46.232Z,99.90
2022-09-28T21:44:13.260Z,99.90
2022-09-28T21:46:40.405Z,99.90
2022-09-28T21:49:08.244Z,99.90
2022-09-28T21:51:36.108Z,99.90
2022-09-28T21:54:03.214Z,99.90
2022-09-28T21:56:30.182Z,99.90
2022-09-28T21:58:57.167Z,99.90
2022-09-28T22:01:26.034Z,99.90
2022-09-28T22:03:55.698Z,99.90
2022-09-28T22:06:24.871Z,99.90
2022-09-28T22:08:51.951Z,99.90
2022-09-28T22:11:24.363Z,99.90
2022-09-28T22:13:57.080Z,99.90
2022-09-28T22:16:26.659Z,99.90
2022-09-28T22:18:53.730Z,99.90
2022-09-28T22:21:26.808Z,99.90
2022-09-28T22:23:53.733Z,99.90
2022-09-28T22:26:25.357Z,99.90
2022-09-28T22:28:55.320Z,99.90
2022-09-28T22:31:29.235Z,99.90
2022-09-28T22:33:57.078Z,99.90
2022-09-28T22:36:24.334Z,99.90
2022-09-28T22:38:51.356Z,99.90
2022-09-28T22:41:22.521Z,99.90
2022-09-28T22:43:51.327Z,99.90
2022-09-28T22:46:21.872Z,99.90
2022-09-28T22:48:50.787Z,99.90
2022-09-28T22:51:18.254Z,99.90
2022-09-28T22:53:45.869Z,99.90
2022-09-28T22:56:18.160Z,99.90
2022-09-28T22:58:45.812Z,99.90
2022-09-28T23:01:23.924Z,99.90
2022-09-28T23:03:52.201Z,99.90
2022-09-28T23:06:21.477Z,99.90
2022-09-28T23:09:01.093Z,99.90
2022-09-28T23:11:29.192Z,99.90
2022-09-28T23:13:58.308Z,99.90
2022-09-28T23:16:26.879Z,99.90
2022-09-28T23:18:55.545Z,99.90
2022-09-28T23:21:25.208Z,99.90
2022-09-28T23:23:58.384Z,99.90
2022-09-28T23:26:28.102Z,99.90
2022-09-28T23:28:55.385Z,99.90
2022-09-28T23:31:25.225Z,99.90
2022-09-28T23:33:56.872Z,99.90
2022-09-28T23:36:23.946Z,99.90
2022-09-28T23:38:51.052Z,99.90
2022-09-28T23:41:18.084Z,99.90
2022-09-28T23:43:45.583Z,99.90
2022-09-28T23:46:12.644Z,99.90
2022-09-28T23:48:39.696Z,99.90
2022-09-28T23:51:07.836Z,99.90
2022-09-28T23:53:35.019Z,99.90
2022-09-28T23:56:02.087Z,99.90
2022-09-28T23:58:29.172Z,99.90
